PDT,Max TemperatureF,Mean TemperatureF,Min TemperatureF,Max Dew PointF,MeanDew PointF,Min DewpointF,Max Humidity, Mean Humidity, Min Humidity, Max Sea Level PressureIn, Mean Sea Level PressureIn, Min Sea Level PressureIn, Max VisibilityMiles, Mean VisibilityMiles, Min VisibilityMiles, Max Wind SpeedMPH, Mean Wind SpeedMPH, Max Gust SpeedMPH,PrecipitationIn, CloudCover, Events, WindDirDegrees
2011-10-1,81,65,49,50,39,26,86,49,12,30.04,29.91,29.84,10,10,10,30,7,35,0.00,3,,222
2011-10-2,78,65,51,39,36,30,54,36,17,30.09,29.94,29.85,10,10,10,31,9,40,0.00,4,,188
2011-10-3,77,65,52,40,34,23,59,39,19,29.91,29.78,29.69,10,10,10,25,11,32,0.00,5,,235
2011-10-4,67,58,49,35,28,19,50,38,26,29.91,29.73,29.49,10,10,10,43,9,54,0.00,6,,268
2011-10-5,53,45,37,42,32,23,86,60,33,29.74,29.58,29.44,10,10,6,40,16,48,0.19,6,Rain,278
2011-10-6,54,46,37,34,30,24,85,60,35,30.04,29.89,29.74,10,10,8,17,7,23,T,5,Rain,312
2011-10-7,65,52,39,37,31,17,76,46,16,30.20,30.11,30.05,10,10,10,16,5,21,0.00,4,,19
2011-10-8,67,54,40,37,34,28,79,53,26,30.24,30.14,30.07,10,10,10,13,4,23,0.00,1,,77
2011-10-9,69,54,38,37,32,28,76,49,22,30.16,30.01,29.89,10,10,10,21,4,28,0.00,4,,286
2011-10-10,65,59,52,47,42,34,67,55,43,30.00,29.90,29.84,10,10,10,14,4,18,0.05,6,Rain,67
2011-10-11,75,61,47,48,33,14,72,41,9,30.19,30.00,29.87,10,10,10,23,10,32,0.00,2,,283
2011-10-12,77,59,40,34,27,-5,67,36,4,30.27,30.15,30.06,10,10,10,8,1,14,0.00,2,,269
2011-10-13,84,64,43,41,37,34,70,44,17,30.16,30.01,29.90,10,10,10,21,3,25,0.00,2,,277
2011-10-14,85,66,46,41,36,27,76,44,12,30.06,29.93,29.84,10,10,10,15,2,25,0.00,2,,205
2011-10-15,81,66,51,40,36,27,59,37,14,30.04,29.92,29.86,10,10,10,15,2,26,0.00,6,,307
2011-10-16,79,67,55,41,38,33,51,35,19,30.27,30.03,29.93,10,10,10,21,6,28,0.00,4,,275
2011-10-17,73,60,46,42,37,32,71,48,24,30.31,30.23,30.15,10,10,10,14,4,18,0.00,1,,94
2011-10-18,76,59,42,39,35,28,71,46,20,30.32,30.14,30.00,10,10,10,10,2,14,0.00,1,,306
2011-10-19,75,60,45,39,36,30,71,46,20,30.11,30.00,29.94,10,10,10,14,3,20,0.00,1,,28
2011-10-20,78,60,41,36,33,26,73,45,16,30.16,30.04,29.93,10,10,10,17,3,26,0.00,1,,263
2011-10-21,74,57,40,33,27,14,76,43,10,30.32,30.17,30.06,10,10,10,10,2,14,0.00,2,,120
2011-10-22,78,58,38,32,28,22,70,42,13,30.32,30.23,30.14,10,10,10,9,2,13,0.00,1,,83
2011-10-23,77,57,37,32,28,19,70,41,11,30.18,30.09,29.97,10,10,10,7,1,9,0.00,3,,187
2011-10-24,72,57,42,36,29,21,62,39,15,30.12,29.99,29.90,10,10,10,24,5,30,0.00,4,,291
2011-10-25,59,48,36,35,24,13,61,42,23,30.20,30.10,30.01,10,10,10,15,5,20,0.00,3,,7
2011-10-26,54,42,29,21,11,3,58,36,13,30.36,30.26,30.20,10,10,10,14,4,18,0.00,1,,99
2011-10-27,60,45,29,14,7,-3,49,29,8,30.25,30.20,30.12,10,10,10,13,2,16,0.00,3,,164
2011-10-28,67,48,29,24,14,3,53,32,10,30.28,30.20,30.12,10,10,10,6,1,13,0.00,1,,270
2011-10-29,70,51,32,26,23,15,64,38,12,30.31,30.23,30.17,10,10,9,9,2,12,0.00,1,,147
2011-10-30,72,53,34,29,24,19,64,40,15,30.29,30.20,30.09,10,10,10,8,1,13,0.00,0,,288
2011-10-31,72,54,35,36,29,25,70,45,20,30.17,30.07,29.95,10,10,10,17,4,22,0.00,1,,229